Goose Lake, Indiana
Current Conditions -  °F | °C
As of 7:54 AM on Friday 31 Oct 2014 (Local Time) from KFWA Reporting Station
Light Rain Light Rain  
Wind Chill: 38°   Ceiling: 5500
Heat Index: 43°   Visibility: 9mi
Dew Point: 38°   Wind: 8mph
Humidity: 82%   Direction: 250°WSW
Pressure: 29.95"   Gusts: NA
Location:  41.1479°N, 85.4772°W
Report Text: KFWA 311154Z 25007KT 9SM -RA FEW037 OVC055 06/03 A2995 RMK AO2 SLP144 P0000 60000 T00610033 10061 20050 56010
Loading
Personal Weather Stations






























Interactive Weather Map
Tropical Storm Tracking
New forecast layout! Learn more

10-Day Weather Forecast

Advertisements
Track Severe Weather on mobile